Time;durP1;ratioP1;P1;durP2;ratioP2;P2;SDS_P1;SDS_P2;PMS_P1;PMS_P2;Temp;Humidity;BMP_temperature;BMP_pressure;BME280_temperature;BME280_humidity;BME280_pressure;Samples;Min_cycle;Max_cycle;Signal;HPM_P1;HPM_P2
2024/03/16 00:01:01;;;;;;;20.90;12.10;;;;;;;4.66;100.00;99895.59;5010504;28;20041;-70
2024/03/16 00:03:28;;;;;;;18.47;11.30;;;;;;;4.62;100.00;99885.41;4994167;28;20143;-69
2024/03/16 00:05:56;;;;;;;20.83;10.03;;;;;;;4.64;100.00;99894.88;4918639;28;20051;-71
2024/03/16 00:08:23;;;;;;;22.00;11.30;;;;;;;4.58;100.00;99891.88;4918673;29;20070;-70
2024/03/16 00:10:50;;;;;;;21.47;10.27;;;;;;;4.60;100.00;99892.56;4919021;29;20210;-69
2024/03/16 00:13:16;;;;;;;17.80;10.63;;;;;;;4.56;100.00;99886.72;4919971;29;20054;-71
2024/03/16 00:15:42;;;;;;;19.37;11.03;;;;;;;4.57;100.00;99887.53;4951348;28;20275;-71
2024/03/16 00:18:09;;;;;;;21.00;11.33;;;;;;;4.54;100.00;99885.16;4920138;29;20481;-71
2024/03/16 00:20:40;;;;;;;19.70;9.90;;;;;;;4.51;100.00;99888.00;4951974;28;20468;-69
2024/03/16 00:23:07;;;;;;;20.27;10.70;;;;;;;4.54;100.00;99878.09;4954454;28;20042;-68
2024/03/16 00:25:34;;;;;;;19.60;11.30;;;;;;;4.61;100.00;99878.50;4970223;28;20483;-70
2024/03/16 00:28:00;;;;;;;21.53;10.30;;;;;;;4.57;100.00;99874.41;4974652;28;20128;-69
2024/03/16 00:30:26;;;;;;;16.93;9.90;;;;;;;4.58;100.00;99882.19;4994281;28;20539;-71
2024/03/16 00:32:52;;;;;;;20.43;9.70;;;;;;;4.60;100.00;99882.06;4994936;28;20046;-71
2024/03/16 00:35:18;;;;;;;17.87;10.40;;;;;;;4.63;100.00;99880.03;4997235;28;20419;-71
2024/03/16 00:37:45;;;;;;;18.23;9.33;;;;;;;4.62;100.00;99881.00;4974279;28;20097;-75
2024/03/16 00:40:12;;;;;;;18.10;10.00;;;;;;;4.63;100.00;99887.94;4944777;28;20072;-66
2024/03/16 00:42:38;;;;;;;16.77;9.93;;;;;;;4.62;100.00;99893.31;4990334;28;20053;-77
2024/03/16 00:45:04;;;;;;;15.97;9.07;;;;;;;4.66;100.00;99871.91;4942145;28;20054;-75
2024/03/16 00:47:31;;;;;;;17.00;10.20;;;;;;;4.66;100.00;99879.81;4942916;28;20050;-78
2024/03/16 00:49:57;;;;;;;19.37;10.33;;;;;;;4.68;100.00;99885.81;4958746;28;20053;-74
2024/03/16 00:52:23;;;;;;;18.33;9.67;;;;;;;4.65;100.00;99880.78;4958811;28;20093;-76
2024/03/16 00:54:48;;;;;;;15.27;9.30;;;;;;;4.67;100.00;99873.63;4943666;28;20185;-81
2024/03/16 00:57:14;;;;;;;14.97;9.53;;;;;;;4.66;100.00;99876.34;4959125;28;20463;-75
2024/03/16 00:59:40;;;;;;;19.87;9.27;;;;;;;4.70;100.00;99875.16;4958680;28;20100;-77
2024/03/16 01:02:07;;;;;;;16.03;9.90;;;;;;;4.71;100.00;99885.56;4942049;28;20046;-77
2024/03/16 01:04:32;;;;;;;16.23;8.83;;;;;;;4.73;100.00;99872.31;4956957;28;20082;-76
2024/03/16 01:07:01;;;;;;;14.03;8.43;;;;;;;4.69;100.00;99870.88;4956425;28;20434;-75
2024/03/16 01:09:27;;;;;;;17.53;10.07;;;;;;;4.62;100.00;99877.53;4973080;28;20392;-76
2024/03/16 01:11:52;;;;;;;16.03;9.17;;;;;;;4.61;100.00;99876.69;4997294;28;20068;-78
2024/03/16 01:14:19;;;;;;;16.40;9.33;;;;;;;4.57;100.00;99871.75;4973162;28;20050;-76
2024/03/16 01:16:45;;;;;;;18.47;9.73;;;;;;;4.56;100.00;99870.94;4955966;28;20190;-77
2024/03/16 01:19:10;;;;;;;16.77;10.20;;;;;;;4.59;100.00;99875.97;4926416;28;20058;-78
2024/03/16 01:21:36;;;;;;;18.63;9.33;;;;;;;4.62;100.00;99869.63;4942097;28;20053;-77
2024/03/16 01:24:03;;;;;;;16.77;9.57;;;;;;;4.61;100.00;99873.22;4958589;28;20473;-76
2024/03/16 01:26:30;;;;;;;21.20;10.07;;;;;;;4.62;100.00;99874.91;4942644;28;20081;-77
2024/03/16 01:28:59;;;;;;;15.80;9.03;;;;;;;4.65;100.00;99866.78;4925471;28;20057;-79
2024/03/16 01:31:26;;;;;;;18.27;11.13;;;;;;;4.57;100.00;99874.41;4956705;28;20046;-78
2024/03/16 01:33:52;;;;;;;16.37;9.80;;;;;;;4.61;100.00;99883.75;4975938;28;20543;-78
2024/03/16 01:36:18;;;;;;;20.27;9.40;;;;;;;4.63;100.00;99876.56;4979525;28;20045;-79
2024/03/16 01:38:44;;;;;;;18.47;10.17;;;;;;;4.58;100.00;99879.53;4999004;28;20388;-78
2024/03/16 01:41:10;;;;;;;21.90;10.17;;;;;;;4.60;100.00;99871.53;4980607;28;20095;-79
2024/03/16 01:43:36;;;;;;;20.17;10.57;;;;;;;4.58;100.00;99876.09;4998908;28;20054;-79
2024/03/16 01:46:02;;;;;;;15.77;9.47;;;;;;;4.56;100.00;99881.47;4970602;28;20223;-76
2024/03/16 01:48:28;;;;;;;19.47;10.30;;;;;;;4.58;100.00;99879.53;4967510;28;20037;-80
2024/03/16 01:50:54;;;;;;;15.37;9.87;;;;;;;4.58;100.00;99878.72;4984538;28;20475;-78
2024/03/16 01:53:20;;;;;;;19.63;10.83;;;;;;;4.58;100.00;99876.09;5032117;28;20040;-77
2024/03/16 01:55:46;;;;;;;18.50;9.67;;;;;;;4.62;100.00;99893.31;5016452;28;20448;-77
2024/03/16 01:58:12;;;;;;;16.00;9.53;;;;;;;4.63;100.00;99877.41;5019944;28;20127;-77
2024/03/16 02:00:37;;;;;;;15.93;9.70;;;;;;;4.64;100.00;99881.72;5020595;28;20045;-77
2024/03/16 02:03:04;;;;;;;18.67;10.30;;;;;;;4.62;100.00;99886.28;5020483;28;20107;-76
2024/03/16 02:05:31;;;;;;;16.03;10.03;;;;;;;4.60;100.00;99879.44;5021261;28;20095;-77
2024/03/16 02:07:59;;;;;;;19.27;10.20;;;;;;;4.58;100.00;99881.34;5038754;28;20113;-76
2024/03/16 02:10:25;;;;;;;17.07;9.97;;;;;;;4.62;100.00;99888.06;5020847;28;20422;-75
2024/03/16 02:12:51;;;;;;;15.40;9.53;;;;;;;4.62;100.00;99882.78;5003939;28;20498;-74
2024/03/16 02:15:18;;;;;;;20.80;10.77;;;;;;;4.61;100.00;99883.75;5019482;28;20071;-76
2024/03/16 02:17:47;;;;;;;20.03;9.93;;;;;;;4.71;100.00;99890.00;5018820;28;20155;-75
2024/03/16 02:20:16;;;;;;;18.17;10.30;;;;;;;4.67;100.00;99893.81;4998516;28;20583;-76
2024/03/16 02:22:43;;;;;;;19.13;10.07;;;;;;;4.67;100.00;99871.00;4984159;28;20069;-78
2024/03/16 02:25:13;;;;;;;17.13;10.43;;;;;;;4.70;100.00;99888.31;4985074;28;20123;-78
2024/03/16 02:27:39;;;;;;;18.53;9.33;;;;;;;4.71;100.00;99882.09;5000327;28;20539;-75
2024/03/16 02:30:10;;;;;;;18.00;10.50;;;;;;;4.72;100.00;99887.25;4983113;28;20049;-76
2024/03/16 02:32:37;;;;;;;15.63;9.93;;;;;;;4.70;100.00;99885.69;4968671;28;20084;-79
2024/03/16 02:35:07;;;;;;;17.33;10.20;;;;;;;4.73;100.00;99882.84;4984187;28;20045;-80
2024/03/16 02:37:34;;;;;;;21.10;9.87;;;;;;;4.70;100.00;99883.06;5000587;28;20043;-79
2024/03/16 02:40:03;;;;;;;19.23;10.10;;;;;;;4.71;100.00;99882.09;5002786;28;20134;-75
2024/03/16 02:42:31;;;;;;;17.70;10.55;;;;;;;4.70;100.00;99883.91;5018037;28;20111;-75
2024/03/16 02:44:57;;;;;;;17.43;10.33;;;;;;;4.72;100.00;99884.63;4983093;28;20050;-78
2024/03/16 02:47:24;;;;;;;19.90;9.57;;;;;;;4.73;100.00;99886.31;4983179;28;20122;-79
2024/03/16 02:49:51;;;;;;;17.47;9.07;;;;;;;4.66;100.00;99878.97;4983062;28;20163;-78
2024/03/16 02:52:17;;;;;;;16.13;9.97;;;;;;;4.70;100.00;99883.06;5051265;28;20049;-78
2024/03/16 02:54:43;;;;;;;16.43;9.83;;;;;;;4.69;100.00;99884.03;5052467;28;20110;-79
2024/03/16 02:57:09;;;;;;;21.73;10.00;;;;;;;4.70;100.00;99869.91;5036584;28;20091;-78
2024/03/16 02:59:36;;;;;;;17.00;9.60;;;;;;;4.73;100.00;99874.94;5020255;28;20040;-78
2024/03/16 03:02:03;;;;;;;17.87;10.07;;;;;;;4.69;100.00;99873.50;5036404;28;20459;-77
2024/03/16 03:04:28;;;;;;;14.73;9.80;;;;;;;4.73;100.00;99873.16;5002943;28;20045;-77
2024/03/16 03:06:54;;;;;;;15.37;9.40;;;;;;;4.74;100.00;99869.56;5019239;28;20071;-75
2024/03/16 03:09:20;;;;;;;16.13;9.60;;;;;;;4.73;100.00;99867.03;5018439;28;20052;-75
2024/03/16 03:11:46;;;;;;;16.50;9.23;;;;;;;4.74;100.00;99873.97;5019006;28;20123;-75
2024/03/16 03:14:16;;;;;;;20.03;9.33;;;;;;;4.71;100.00;99879.47;5012318;28;20068;-74
2024/03/16 03:16:43;;;;;;;18.80;9.95;;;;;;;4.71;100.00;99867.16;5052201;28;20051;-78
2024/03/16 03:19:09;;;;;;;14.20;9.17;;;;;;;4.74;100.00;99868.72;5026051;28;20068;-78
2024/03/16 03:21:37;;;;;;;16.60;9.30;;;;;;;4.78;100.00;99883.34;5017618;28;20049;-79
2024/03/16 03:24:03;;;;;;;18.37;9.53;;;;;;;4.74;100.00;99877.44;5030325;28;20083;-81
2024/03/16 03:26:29;;;;;;;16.33;9.97;;;;;;;4.72;100.00;99879.34;5015102;28;20411;-76
2024/03/16 03:28:55;;;;;;;17.17;9.83;;;;;;;4.75;100.00;99871.22;4978843;28;20141;-76
2024/03/16 03:31:22;;;;;;;15.70;9.20;;;;;;;4.75;100.00;99876.47;4979727;28;20108;-79
2024/03/16 03:33:51;;;;;;;18.53;10.20;;;;;;;4.74;100.00;99868.72;4976226;28;20510;-77
2024/03/16 03:36:17;;;;;;;17.40;9.97;;;;;;;4.75;100.00;99865.97;4925910;28;20050;-77
2024/03/16 03:38:43;;;;;;;17.83;10.07;;;;;;;4.75;100.00;99871.22;4956907;28;20050;-75
2024/03/16 03:41:11;;;;;;;19.97;9.47;;;;;;;4.79;100.00;99879.72;4939543;28;20062;-73
2024/03/16 03:43:40;;;;;;;15.27;9.10;;;;;;;4.78;100.00;99872.81;4939944;28;20043;-76
2024/03/16 03:46:13;;;;;;;15.63;9.57;;;;;;;4.79;100.00;99874.47;4955324;28;20097;-76
2024/03/16 03:48:43;;;;;;;16.53;9.60;;;;;;;4.80;100.00;99874.34;4954697;28;20046;-75
2024/03/16 03:51:09;;;;;;;15.07;8.68;;;;;;;4.82;100.00;99872.47;4955832;28;20377;-75
2024/03/16 03:53:36;;;;;;;17.00;10.17;;;;;;;4.79;100.00;99879.72;4966373;28;20113;-76
2024/03/16 03:56:02;;;;;;;16.67;10.23;;;;;;;4.76;100.00;99878.19;4951937;29;20059;-77
2024/03/16 03:58:28;;;;;;;24.03;10.23;;;;;;;4.75;100.00;99880.94;4957486;29;20139;-77
2024/03/16 04:00:53;;;;;;;18.67;9.67;;;;;;;4.77;100.00;99879.00;4937152;29;20063;-75
2024/03/16 04:03:19;;;;;;;18.73;9.60;;;;;;;4.81;100.00;99881.28;4970071;28;20101;-77
2024/03/16 04:05:45;;;;;;;17.63;9.50;;;;;;;4.76;100.00;99880.81;4923852;28;20055;-77
2024/03/16 04:08:11;;;;;;;16.30;9.00;;;;;;;4.81;100.00;99880.47;4955463;28;20125;-74
2024/03/16 04:10:37;;;;;;;17.10;9.47;;;;;;;4.84;100.00;99880.22;4917422;29;20480;-76
2024/03/16 04:13:04;;;;;;;15.03;9.30;;;;;;;4.88;100.00;99882.50;4885938;29;20059;-76
2024/03/16 04:15:30;;;;;;;20.77;9.80;;;;;;;4.83;100.00;99884.66;4917480;29;20102;-76
2024/03/16 04:17:56;;;;;;;16.10;9.63;;;;;;;4.84;100.00;99886.31;4916766;29;20107;-75
2024/03/16 04:20:22;;;;;;;21.23;10.43;;;;;;;4.86;100.00;99889.69;4900738;29;20059;-73
2024/03/16 04:22:48;;;;;;;18.90;9.53;;;;;;;4.87;100.00;99893.16;4917246;29;20055;-71
2024/03/16 04:25:16;;;;;;;19.63;10.03;;;;;;;4.88;100.00;99886.94;4921251;29;20090;-74
2024/03/16 04:27:44;;;;;;;19.00;10.53;;;;;;;4.86;100.00;99894.09;4920800;29;20046;-74
2024/03/16 04:30:15;;;;;;;19.13;9.53;;;;;;;4.98;100.00;99896.63;4942329;28;20144;-77
2024/03/16 04:32:41;;;;;;;18.10;9.50;;;;;;;4.90;100.00;99900.81;4958939;28;20042;-78
2024/03/16 04:35:09;;;;;;;17.80;9.03;;;;;;;4.92;100.00;99894.47;4965815;28;20515;-75
2024/03/16 04:37:35;;;;;;;17.23;9.50;;;;;;;4.93;100.00;99897.94;5013753;28;20049;-77
2024/03/16 04:40:03;;;;;;;16.47;10.00;;;;;;;4.93;100.00;99895.31;5013334;28;20200;-76
2024/03/16 04:42:29;;;;;;;17.47;9.43;;;;;;;4.98;100.00;99893.19;5047793;28;20067;-75
2024/03/16 04:44:55;;;;;;;19.27;9.73;;;;;;;4.99;100.00;99892.22;5015771;28;20052;-75
2024/03/16 04:47:21;;;;;;;20.77;8.53;;;;;;;5.05;100.00;99892.59;5016925;28;20131;-75
2024/03/16 04:49:47;;;;;;;20.30;9.80;;;;;;;5.12;100.00;99893.78;4999332;28;20040;-75
2024/03/16 04:52:13;;;;;;;15.73;9.47;;;;;;;5.11;100.00;99900.03;5016139;28;20107;-74
2024/03/16 04:54:41;;;;;;;13.63;8.33;;;;;;;5.16;100.00;99897.88;5016168;28;20396;-76
2024/03/16 04:57:07;;;;;;;15.63;8.80;;;;;;;5.17;100.00;99896.91;5015658;28;20582;-76
2024/03/16 04:59:33;;;;;;;18.00;9.20;;;;;;;5.13;100.00;99892.88;5017170;28;20156;-76
2024/03/16 05:01:58;;;;;;;16.47;8.27;;;;;;;5.20;100.00;99899.31;5018121;28;20135;-76
2024/03/16 05:04:26;;;;;;;17.43;9.27;;;;;;;5.17;100.00;99903.97;5034186;28;20122;-76
2024/03/16 05:06:52;;;;;;;14.70;8.97;;;;;;;5.24;100.00;99906.00;5017302;28;20396;-77
2024/03/16 05:09:19;;;;;;;20.67;9.53;;;;;;;5.23;100.00;99903.50;5033653;28;20067;-77
2024/03/16 05:11:44;;;;;;;14.57;8.53;;;;;;;5.22;100.00;99913.22;5033996;28;20044;-76
2024/03/16 05:14:10;;;;;;;15.23;9.60;;;;;;;5.24;100.00;99907.81;5017504;28;20059;-76
2024/03/16 05:16:38;;;;;;;15.83;8.83;;;;;;;5.32;100.00;99899.34;5017409;28;20085;-75
2024/03/16 05:19:06;;;;;;;16.93;8.97;;;;;;;5.30;100.00;99903.88;5018446;28;21087;-76
2024/03/16 05:21:33;;;;;;;15.53;9.37;;;;;;;5.36;100.00;99906.03;5052477;28;20087;-77
2024/03/16 05:23:59;;;;;;;19.43;10.37;;;;;;;5.33;100.00;99899.22;5051532;28;20144;-76
2024/03/16 05:26:26;;;;;;;19.27;8.87;;;;;;;5.31;100.00;99898.47;5033308;28;20152;-77
2024/03/16 05:28:52;;;;;;;18.30;9.33;;;;;;;5.34;100.00;99903.50;5033378;28;20091;-76
2024/03/16 05:31:18;;;;;;;16.30;9.03;;;;;;;5.35;100.00;99912.25;5001208;28;20099;-77
2024/03/16 05:33:45;;;;;;;13.27;9.07;;;;;;;5.45;100.00;99903.53;5004209;28;20048;-77
2024/03/16 05:36:14;;;;;;;12.37;8.30;;;;;;;5.53;100.00;99910.81;4985542;28;20049;-76
2024/03/16 05:38:43;;;;;;;15.60;9.03;;;;;;;5.49;100.00;99901.50;4985318;28;20041;-76
2024/03/16 05:41:10;;;;;;;15.50;8.70;;;;;;;5.57;100.00;99915.72;4985349;28;20056;-77
2024/03/16 05:43:36;;;;;;;21.07;10.20;;;;;;;5.49;100.00;99910.22;5001308;28;20538;-77
2024/03/16 05:46:04;;;;;;;17.63;9.50;;;;;;;5.55;100.00;99914.19;4984825;28;20538;-76
2024/03/16 05:48:30;;;;;;;18.13;9.37;;;;;;;5.55;100.00;99908.91;4985162;28;20383;-75
2024/03/16 05:50:56;;;;;;;20.67;9.67;;;;;;;5.62;100.00;99918.00;4984826;28;20042;-76
2024/03/16 05:53:23;;;;;;;14.77;9.63;;;;;;;5.69;100.00;99920.03;5001194;28;20084;-75
2024/03/16 05:55:51;;;;;;;15.23;9.80;;;;;;;5.63;100.00;99920.53;5000583;28;20045;-77
2024/03/16 05:58:17;;;;;;;21.10;9.80;;;;;;;5.65;100.00;99920.41;4984976;28;20318;-76
2024/03/16 06:00:45;;;;;;;17.30;10.20;;;;;;;5.72;100.00;99918.97;5001452;28;20048;-77
2024/03/16 06:03:11;;;;;;;22.13;10.27;;;;;;;5.67;100.00;99921.97;5021730;28;20037;-77
2024/03/16 06:05:37;;;;;;;17.20;9.27;;;;;;;5.80;100.00;99921.81;5000242;28;20086;-77
2024/03/16 06:08:04;;;;;;;21.90;11.67;;;;;;;5.85;100.00;99923.19;4999618;28;20064;-76
2024/03/16 06:10:31;;;;;;;21.17;10.40;;;;;;;5.85;100.00;99923.19;4976713;28;20053;-76
2024/03/16 06:12:58;;;;;;;17.77;9.73;;;;;;;5.94;100.00;99925.09;5027074;28;20095;-77
2024/03/16 06:15:24;;;;;;;14.73;9.00;;;;;;;6.04;100.00;99923.38;5012286;28;20120;-76
2024/03/16 06:17:50;;;;;;;17.43;9.73;;;;;;;6.02;100.00;99922.69;5002438;28;20080;-75
2024/03/16 06:20:17;;;;;;;17.17;9.70;;;;;;;6.12;100.00;99926.25;5017911;28;20102;-76
2024/03/16 06:22:44;;;;;;;18.03;10.60;;;;;;;6.10;100.00;99932.63;4982568;28;20045;-73
2024/03/16 06:25:12;;;;;;;18.00;9.43;;;;;;;6.04;100.00;99931.28;4993051;28;20037;-74
2024/03/16 06:28:05;;;;;;;17.93;9.50;;;;;;;6.21;100.00;99933.41;5016421;28;20522;-75
2024/03/16 06:30:31;;;;;;;14.73;9.67;;;;;;;6.26;100.00;99928.63;4996590;28;20179;-76
2024/03/16 06:33:08;;;;;;;16.47;9.03;;;;;;;6.53;100.00;99929.00;4984244;28;20140;-74
2024/03/16 06:35:41;;;;;;;15.18;9.25;;;;;;;6.76;100.00;99929.78;5063350;28;20084;-68
2024/03/16 06:38:10;;;;;;;18.45;9.52;;;;;;;6.97;100.00;99925.34;5056884;28;20166;-69
2024/03/16 06:40:35;;;;;;;15.20;8.40;;;;;;;7.21;100.00;99925.91;5071909;28;20053;-71
2024/03/16 06:43:02;;;;;;;13.50;8.20;;;;;;;7.54;100.00;99930.97;5038621;28;20449;-70
2024/03/16 06:45:27;;;;;;;16.02;9.13;;;;;;;7.83;100.00;99923.16;5022665;28;20036;-70
2024/03/16 06:47:53;;;;;;;24.75;9.63;;;;;;;8.20;100.00;99929.53;5022693;28;20040;-71
2024/03/16 06:50:23;;;;;;;16.50;9.25;;;;;;;8.48;100.00;99929.63;5038476;28;20055;-70
2024/03/16 06:52:48;;;;;;;17.90;9.48;;;;;;;8.59;100.00;99932.13;5071472;28;20135;-69
2024/03/16 06:55:17;;;;;;;14.02;8.93;;;;;;;8.74;100.00;99929.91;5022353;28;20089;-73
2024/03/16 06:57:46;;;;;;;20.13;8.85;;;;;;;8.86;100.00;99931.44;5060946;28;20040;-72
2024/03/16 07:00:14;;;;;;;18.73;9.85;;;;;;;8.92;100.00;99922.13;5045008;28;20041;-73
2024/03/16 07:02:40;;;;;;;15.57;8.70;;;;;;;8.99;100.00;99928.50;5035018;28;20044;-72
2024/03/16 07:05:10;;;;;;;17.92;9.27;;;;;;;8.93;100.00;99923.78;5019697;28;20046;-72
2024/03/16 07:07:39;;;;;;;15.18;9.32;;;;;;;9.01;100.00;99934.50;4999310;28;20127;-72
2024/03/16 07:10:06;;;;;;;21.10;10.05;;;;;;;9.05;100.00;99934.09;4983458;28;20060;-73
2024/03/16 07:12:33;;;;;;;14.77;9.10;;;;;;;9.25;100.00;99932.25;4998672;28;20061;-73
2024/03/16 07:15:00;;;;;;;18.70;9.27;;;;;;;9.21;100.00;99934.31;4982624;28;20037;-73
2024/03/16 07:17:31;;;;;;;17.25;9.40;;;;;;;9.14;100.00;99930.59;4983925;28;20144;-72
2024/03/16 07:19:57;;;;;;;18.65;8.85;;;;;;;9.18;100.00;99923.19;4967254;28;20033;-71
2024/03/16 07:22:26;;;;;;;17.08;8.70;;;;;;;9.39;100.00;99919.38;4998476;28;20526;-73
2024/03/16 07:24:54;;;;;;;18.65;9.43;;;;;;;9.61;100.00;99921.66;4998596;28;20041;-71
2024/03/16 07:27:20;;;;;;;13.85;8.02;;;;;;;9.94;100.00;99913.16;5031261;28;20060;-73
2024/03/16 07:29:46;;;;;;;18.67;10.48;;;;;;;10.53;100.00;99927.78;5030880;28;20045;-71
2024/03/16 07:32:11;;;;;;;14.15;9.63;;;;;;;11.86;96.29;99919.34;4997919;28;20045;-73
2024/03/16 07:34:37;;;;;;;20.13;9.48;;;;;;;13.98;82.02;99919.16;5014079;28;20057;-74
2024/03/16 07:37:04;;;;;;;21.55;10.15;;;;;;;16.09;67.34;99921.69;4998207;28;20049;-73
2024/03/16 07:39:30;;;;;;;19.20;9.23;;;;;;;17.78;55.54;99921.72;5016864;28;20118;-73
2024/03/16 07:41:56;;;;;;;17.60;9.07;;;;;;;19.05;47.77;99919.97;5035804;28;20047;-71
2024/03/16 07:44:22;;;;;;;22.17;10.73;;;;;;;19.37;42.30;99921.88;5035490;28;20036;-71
2024/03/16 07:46:48;;;;;;;14.45;9.02;;;;;;;19.86;40.60;99924.97;5018637;28;20113;-71
2024/03/16 07:49:14;;;;;;;20.52;9.57;;;;;;;20.59;38.99;99928.28;5034705;28;20092;-71
2024/03/16 07:51:43;;;;;;;15.98;9.90;;;;;;;20.75;36.50;99920.50;5034171;28;20075;-71
2024/03/16 07:54:12;;;;;;;18.92;10.02;;;;;;;20.64;35.80;99929.25;5035188;28;20053;-71
2024/03/16 07:56:39;;;;;;;16.83;10.83;;;;;;;20.43;35.51;99926.03;5003115;28;20616;-78
2024/03/16 07:59:09;;;;;;;18.55;10.50;;;;;;;20.53;35.89;99934.50;5051634;28;20338;-75
2024/03/16 08:01:41;;;;;;;18.48;10.38;;;;;;;20.87;34.91;99931.41;5018202;28;20056;-73
2024/03/16 08:04:10;;;;;;;19.83;10.70;;;;;;;20.61;34.65;99920.75;5033559;28;20064;-77
2024/03/16 08:06:37;;;;;;;16.25;9.73;;;;;;;20.81;33.72;99926.88;5002289;28;20144;-77
2024/03/16 08:09:08;;;;;;;16.30;11.20;;;;;;;21.15;33.76;99927.31;5050300;28;20144;-75
2024/03/16 08:11:34;;;;;;;18.73;9.93;;;;;;;21.70;32.86;99933.72;5001221;28;20049;-74
2024/03/16 08:14:00;;;;;;;20.13;12.07;;;;;;;22.11;31.64;99919.59;5017220;28;20441;-77
2024/03/16 08:16:25;;;;;;;20.45;10.90;;;;;;;22.60;31.04;99922.94;5001231;28;20083;-75
2024/03/16 08:18:51;;;;;;;16.17;11.25;;;;;;;22.29;30.77;99925.84;5001059;28;20128;-75
2024/03/16 08:21:18;;;;;;;19.13;10.55;;;;;;;22.57;30.72;99926.13;5017232;28;20123;-75
2024/03/16 08:23:44;;;;;;;19.95;11.88;;;;;;;22.52;30.39;99926.00;5033000;28;20068;-77
2024/03/16 08:26:10;;;;;;;19.05;10.57;;;;;;;22.66;30.15;99911.22;5033739;28;20041;-72
2024/03/16 08:28:36;;;;;;;19.42;10.35;;;;;;;22.76;29.86;99907.94;4999917;28;20049;-73
2024/03/16 08:31:04;;;;;;;20.75;11.48;;;;;;;22.89;28.94;99924.03;5000905;28;20044;-73
2024/03/16 08:33:34;;;;;;;15.57;10.40;;;;;;;23.53;28.33;99923.22;5033048;28;20403;-75
2024/03/16 08:36:00;;;;;;;22.95;10.40;;;;;;;23.74;28.60;99911.81;4974170;28;20145;-72
2024/03/16 08:38:26;;;;;;;18.30;10.80;;;;;;;23.47;28.25;99921.47;4985534;28;20152;-72
2024/03/16 08:40:52;;;;;;;20.70;10.48;;;;;;;23.12;28.42;99914.09;4977211;28;20050;-74
2024/03/16 08:43:17;;;;;;;19.98;10.80;;;;;;;23.39;28.30;99911.00;4993320;28;20092;-74
2024/03/16 08:45:43;;;;;;;18.27;10.02;;;;;;;23.73;27.96;99915.56;4993324;28;20124;-73
2024/03/16 08:48:09;;;;;;;18.25;10.48;;;;;;;24.04;27.55;99905.22;4993045;28;20033;-74
2024/03/16 08:50:35;;;;;;;15.65;9.30;;;;;;;24.06;27.05;99904.97;4993581;28;20165;-74
2024/03/16 08:53:01;;;;;;;17.77;9.93;;;;;;;24.02;26.92;99907.34;4960403;28;20049;-72
2024/03/16 08:55:27;;;;;;;15.27;8.20;;;;;;;24.61;26.75;99890.66;4977394;28;20393;-72
2024/03/16 08:57:53;;;;;;;15.27;9.52;;;;;;;24.94;25.65;99903.50;5009700;28;20054;-73
2024/03/16 09:00:18;;;;;;;15.57;9.40;;;;;;;24.84;25.53;99895.19;4960301;28;20044;-73
2024/03/16 09:02:44;;;;;;;12.60;8.48;;;;;;;25.25;25.48;99899.44;4957817;28;20073;-73
2024/03/16 09:05:12;;;;;;;14.52;8.77;;;;;;;25.56;25.02;99896.16;4969913;28;20486;-74
2024/03/16 09:07:39;;;;;;;13.05;7.68;;;;;;;25.64;24.99;99898.47;4997254;28;20046;-74
2024/03/16 09:10:06;;;;;;;9.73;7.47;;;;;;;25.47;24.38;99898.47;5025403;28;20099;-74
2024/03/16 09:12:34;;;;;;;11.90;6.63;;;;;;;25.30;24.74;99883.19;5034658;28;20047;-73
2024/03/16 09:15:02;;;;;;;10.98;6.90;;;;;;;24.74;25.05;99903.97;5025090;28;20060;-72
2024/03/16 09:17:32;;;;;;;11.27;8.45;;;;;;;24.44;25.32;99892.50;5010434;28;20044;-72
2024/03/16 09:19:58;;;;;;;15.75;8.32;;;;;;;24.38;25.43;99896.19;5035162;28;20067;-73
2024/03/16 09:22:25;;;;;;;10.25;6.88;;;;;;;24.36;25.12;99887.44;5041858;28;20045;-73
2024/03/16 09:24:51;;;;;;;12.57;7.80;;;;;;;24.18;25.26;99878.63;4967182;28;20038;-74
2024/03/16 09:27:17;;;;;;;10.68;7.13;;;;;;;24.40;25.50;99879.66;4967637;28;20158;-73
2024/03/16 09:29:43;;;;;;;14.43;8.15;;;;;;;24.57;24.71;99899.53;4933774;28;20517;-74
2024/03/16 09:32:10;;;;;;;13.45;8.00;;;;;;;24.36;24.71;99878.47;4967537;28;20034;-74
2024/03/16 09:34:36;;;;;;;12.25;7.40;;;;;;;24.36;25.03;99881.16;4950743;28;20417;-74
2024/03/16 09:37:02;;;;;;;11.65;7.82;;;;;;;24.67;25.03;99875.31;4965723;28;20046;-73
2024/03/16 09:39:28;;;;;;;9.50;6.55;;;;;;;24.78;24.41;99874.44;4974846;28;20046;-72
2024/03/16 09:41:56;;;;;;;13.60;7.80;;;;;;;24.04;24.75;99874.53;4924585;29;20130;-71
2024/03/16 09:44:22;;;;;;;10.73;6.95;;;;;;;24.01;25.20;99881.28;4926353;29;20073;-73
2024/03/16 09:46:51;;;;;;;13.82;7.63;;;;;;;23.71;25.39;99874.31;4866165;29;20052;-74
2024/03/16 09:49:19;;;;;;;8.30;6.80;;;;;;;23.86;25.13;99877.38;4851442;29;20145;-72
2024/03/16 09:51:46;;;;;;;11.43;6.70;;;;;;;23.90;24.99;99859.53;4837029;29;20489;-73
2024/03/16 09:54:14;;;;;;;10.25;6.82;;;;;;;24.72;24.72;99865.34;4852377;29;20632;-73
2024/03/16 09:56:40;;;;;;;9.38;7.07;;;;;;;25.02;24.08;99865.06;4896378;29;20061;-73
2024/03/16 09:59:14;;;;;;;8.40;6.40;;;;;;;24.72;24.01;99854.47;4881382;29;20448;-73
2024/03/16 10:01:40;;;;;;;7.47;6.28;;;;;;;24.16;24.62;99856.31;4896552;29;20144;-72
2024/03/16 10:04:08;;;;;;;16.50;6.97;;;;;;;23.81;24.72;99855.53;4881153;29;20044;-72
2024/03/16 10:06:34;;;;;;;9.40;6.20;;;;;;;23.90;24.80;99843.25;4895877;29;20057;-74
2024/03/16 10:09:10;;;;;;;12.57;6.80;;;;;;;24.42;24.64;99855.75;4850197;29;20139;-73
2024/03/16 10:11:40;;;;;;;10.70;6.93;;;;;;;24.43;24.44;99854.72;4904521;29;20115;-72
2024/03/16 10:14:09;;;;;;;10.98;6.82;;;;;;;24.27;24.85;99858.19;4924899;29;20043;-72
2024/03/16 10:16:40;;;;;;;9.40;6.40;;;;;;;24.41;24.38;99849.53;4925683;28;20060;-72
2024/03/16 10:19:10;;;;;;;9.07;6.25;;;;;;;24.63;24.33;99855.09;4990803;28;20053;-72
2024/03/16 10:21:35;;;;;;;8.93;6.25;;;;;;;24.60;24.21;99861.81;4976310;28;20042;-71
2024/03/16 10:24:02;;;;;;;14.20;6.88;;;;;;;24.33;24.32;99840.94;4944171;28;20061;-75
2024/03/16 10:26:30;;;;;;;8.35;6.43;;;;;;;24.83;24.09;99852.78;4960720;28;20049;-72
2024/03/16 10:28:59;;;;;;;9.25;6.03;;;;;;;24.82;23.80;99851.13;4999471;28;20107;-72
2024/03/16 10:31:26;;;;;;;11.00;5.88;;;;;;;24.52;24.22;99843.22;5040979;28;20467;-72
2024/03/16 10:33:54;;;;;;;7.82;5.50;;;;;;;24.46;24.16;99840.66;5043613;28;20460;-73
2024/03/16 10:36:20;;;;;;;10.70;5.38;;;;;;;24.21;24.60;99834.72;5033359;28;20045;-72
2024/03/16 10:38:47;;;;;;;7.13;5.50;;;;;;;24.14;24.76;99834.84;5027533;28;20045;-72
2024/03/16 10:41:16;;;;;;;7.28;5.22;;;;;;;24.53;24.26;99830.47;5033310;28;20033;-73
2024/03/16 10:43:42;;;;;;;7.73;5.30;;;;;;;24.41;24.59;99837.84;4999991;28;20464;-70
2024/03/16 10:46:15;;;;;;;6.57;5.13;;;;;;;24.21;24.38;99835.56;5032663;28;20042;-73
2024/03/16 10:48:45;;;;;;;9.07;5.47;;;;;;;23.54;25.21;99821.88;5000901;28;20051;-72
2024/03/16 10:51:17;;;;;;;8.02;5.05;;;;;;;22.91;25.59;99827.91;4924833;28;20062;-72
2024/03/16 10:53:46;;;;;;;8.20;5.45;;;;;;;23.91;25.02;99821.31;4970795;28;20051;-74
2024/03/16 10:56:15;;;;;;;7.25;5.10;;;;;;;23.89;25.03;99819.91;4960131;28;20046;-74
2024/03/16 10:58:42;;;;;;;8.13;5.50;;;;;;;23.23;25.07;99831.94;4960908;28;20046;-72
2024/03/16 11:01:08;;;;;;;10.10;5.43;;;;;;;23.22;25.65;99808.63;4947348;28;20049;-78
2024/03/16 11:03:38;;;;;;;14.50;5.85;;;;;;;22.72;26.28;99829.06;4953573;28;20054;-73
2024/03/16 11:06:12;;;;;;;8.75;5.43;;;;;;;22.26;26.59;99822.63;4951784;28;20039;-73
2024/03/16 11:08:42;;;;;;;8.20;5.13;;;;;;;22.13;26.81;99829.03;4954435;28;20086;-74
2024/03/16 11:11:10;;;;;;;14.07;4.82;;;;;;;21.81;27.23;99819.44;4956469;28;20050;-73
2024/03/16 11:13:37;;;;;;;9.20;5.15;;;;;;;21.75;27.65;99823.06;4955276;28;20047;-75
2024/03/16 11:16:28;;;;;;;14.13;5.30;;;;;;;21.18;27.94;99818.81;4973055;28;20497;-74
2024/03/16 11:21:39;;;;;;;10.32;5.50;;;;;;;21.20;28.11;99811.31;4977901;28;20132;-73
2024/03/16 11:24:13;;;;;;;11.02;5.07;;;;;;;21.09;28.63;99798.56;4943310;28;20112;-73
2024/03/16 11:26:40;;;;;;;14.07;6.13;;;;;;;20.46;29.30;99817.69;4943720;28;20382;-72